RJNS(METAR)
05/31 21:00
METAR RJNS 311200Z VRB02KT 9999 FEW015 BKN050 BKN080 18/18 Q1016 RMK
1CU015 6SC050 7AC080 A3003=
戻る
トップページへ戻る
IMOC Co,.Ltd.